createdAt,value
2023-04-29T00:00:17.367Z,2.13
2023-04-29T00:01:17.413Z,2.10
2023-04-29T00:02:17.475Z,2.13
2023-04-29T00:03:17.590Z,2.13
2023-04-29T00:04:17.586Z,2.15
2023-04-29T00:05:17.728Z,2.14
2023-04-29T00:06:17.597Z,2.09
2023-04-29T00:07:17.479Z,2.09
2023-04-29T00:08:17.520Z,2.10
2023-04-29T00:09:17.530Z,2.12
2023-04-29T00:10:17.550Z,2.12
2023-04-29T00:11:17.535Z,2.10
2023-04-29T00:12:17.557Z,2.13
2023-04-29T00:13:17.617Z,2.13
2023-04-29T00:14:17.614Z,2.09
2023-04-29T00:15:17.677Z,2.16
2023-04-29T00:16:17.859Z,2.11
2023-04-29T00:17:17.808Z,2.12
2023-04-29T00:18:17.863Z,2.11
2023-04-29T00:19:17.904Z,2.11
2023-04-29T00:20:18.023Z,2.14
2023-04-29T00:21:17.993Z,2.09
2023-04-29T00:22:18.132Z,2.10
2023-04-29T00:23:18.195Z,2.10
2023-04-29T00:24:18.220Z,2.08
2023-04-29T00:25:18.304Z,2.12
2023-04-29T00:26:18.324Z,2.09
2023-04-29T00:27:18.415Z,2.15
2023-04-29T00:28:18.475Z,2.10
2023-04-29T00:29:18.535Z,2.06
2023-04-29T00:30:18.536Z,2.11
2023-04-29T00:31:18.571Z,2.12
2023-04-29T00:32:18.611Z,2.11
2023-04-29T00:33:18.674Z,2.07
2023-04-29T00:34:18.700Z,2.08
2023-04-29T00:35:18.783Z,2.08
2023-04-29T00:36:18.836Z,2.03
2023-04-29T00:37:18.899Z,2.05
2023-04-29T00:38:18.925Z,2.05
2023-04-29T00:39:18.967Z,2.08
2023-04-29T00:40:19.025Z,2.06
2023-04-29T00:41:19.058Z,2.06
2023-04-29T00:42:19.085Z,2.04
2023-04-29T00:43:19.195Z,2.08
2023-04-29T00:44:19.210Z,2.05
2023-04-29T00:45:19.316Z,2.10
2023-04-29T00:46:19.394Z,2.03
2023-04-29T00:47:19.380Z,2.06
2023-04-29T00:48:19.363Z,1.99
2023-04-29T00:49:19.446Z,2.02
2023-04-29T00:50:19.491Z,2.03
2023-04-29T00:51:19.565Z,2.04
2023-04-29T00:52:19.622Z,2.04
2023-04-29T00:53:19.670Z,2.06
2023-04-29T00:54:19.789Z,2.03
2023-04-29T00:55:19.785Z,2.04
2023-04-29T00:56:19.777Z,2.04
2023-04-29T00:57:19.846Z,2.04
2023-04-29T00:58:19.905Z,2.05
2023-04-29T00:59:19.960Z,2.03
2023-04-29T01:00:20.077Z,2.04
2023-04-29T01:01:20.262Z,2.03
2023-04-29T01:02:20.162Z,2.03
2023-04-29T01:03:20.343Z,2.06
2023-04-29T01:04:20.265Z,2.06
2023-04-29T01:05:20.260Z,2.04
2023-04-29T01:06:20.251Z,2.00
2023-04-29T01:07:20.271Z,2.02
2023-04-29T01:08:20.279Z,2.00
2023-04-29T01:09:20.248Z,2.01
2023-04-29T01:10:20.264Z,1.98
2023-04-29T01:11:20.249Z,1.99
2023-04-29T01:12:20.285Z,1.98
2023-04-29T01:13:20.369Z,1.99
2023-04-29T01:14:20.389Z,2.02
2023-04-29T01:15:20.418Z,2.01
2023-04-29T01:16:20.426Z,2.00
2023-04-29T01:17:20.401Z,1.99
2023-04-29T01:18:20.411Z,2.01
2023-04-29T01:19:20.511Z,1.97
2023-04-29T01:20:20.527Z,1.97
2023-04-29T01:21:20.566Z,2.00
2023-04-29T01:22:20.641Z,1.98
2023-04-29T01:23:20.789Z,1.98
2023-04-29T01:24:20.759Z,1.96
2023-04-29T01:25:20.808Z,2.01
2023-04-29T01:26:20.824Z,1.96
2023-04-29T01:27:20.910Z,1.98
2023-04-29T01:28:20.988Z,1.98
2023-04-29T01:29:21.028Z,1.99
2023-04-29T01:30:21.128Z,1.97
2023-04-29T01:31:21.185Z,1.96
2023-04-29T01:32:21.227Z,1.98
2023-04-29T01:33:21.289Z,1.99
2023-04-29T01:34:21.353Z,1.98
2023-04-29T01:35:21.410Z,1.96
2023-04-29T01:36:21.455Z,1.91
2023-04-29T01:37:21.520Z,2.00
2023-04-29T01:38:21.570Z,1.96
2023-04-29T01:39:21.693Z,1.97
2023-04-29T01:40:21.683Z,1.98
2023-04-29T01:41:21.798Z,1.96
2023-04-29T01:42:21.763Z,1.96
2023-04-29T01:43:21.749Z,1.96
2023-04-29T01:44:21.763Z,1.95
2023-04-29T01:45:21.744Z,1.95
2023-04-29T01:46:21.774Z,1.95
2023-04-29T01:47:21.806Z,1.94
2023-04-29T01:48:21.846Z,1.96
2023-04-29T01:49:21.958Z,1.94
2023-04-29T01:50:21.958Z,1.95
2023-04-29T01:51:22.020Z,1.91
2023-04-29T01:52:22.070Z,1.95
2023-04-29T01:53:22.126Z,1.97
2023-04-29T01:54:22.233Z,1.91
2023-04-29T01:55:25.105Z,1.94
2023-04-29T01:56:22.255Z,1.96
2023-04-29T01:57:22.257Z,1.93
2023-04-29T01:58:22.251Z,1.93
2023-04-29T01:59:22.276Z,1.92
2023-04-29T02:00:22.259Z,1.93
2023-04-29T02:01:22.346Z,1.90
2023-04-29T02:02:22.346Z,1.91
2023-04-29T02:03:22.302Z,1.91
2023-04-29T02:04:22.233Z,1.90
2023-04-29T02:05:22.208Z,1.90
2023-04-29T02:06:22.176Z,1.88
2023-04-29T02:07:22.173Z,1.96
2023-04-29T02:08:22.206Z,1.92
2023-04-29T02:09:22.191Z,1.90
2023-04-29T02:10:22.138Z,1.91
2023-04-29T02:11:22.151Z,1.87
2023-04-29T02:12:22.159Z,1.89
2023-04-29T02:13:22.181Z,1.87
2023-04-29T02:14:22.138Z,1.85
2023-04-29T02:15:22.142Z,1.87
2023-04-29T02:16:22.182Z,1.89
2023-04-29T02:17:22.141Z,1.87
2023-04-29T02:18:22.070Z,1.87
2023-04-29T02:19:22.101Z,1.86
2023-04-29T02:20:22.115Z,1.86
2023-04-29T02:21:22.076Z,1.90
2023-04-29T02:22:22.030Z,1.87
2023-04-29T02:23:22.050Z,1.86
2023-04-29T02:24:22.093Z,1.80
2023-04-29T02:25:22.039Z,1.84
2023-04-29T02:26:22.048Z,1.85
2023-04-29T02:27:22.000Z,1.88
2023-04-29T02:28:22.025Z,1.85
2023-04-29T02:29:21.996Z,1.85
2023-04-29T02:30:21.983Z,1.89
2023-04-29T02:31:22.058Z,1.91
2023-04-29T02:32:21.979Z,1.83
2023-04-29T02:33:21.985Z,1.85
2023-04-29T02:34:22.007Z,1.86
2023-04-29T02:35:21.999Z,1.86
2023-04-29T02:36:21.989Z,1.86
2023-04-29T02:37:21.974Z,1.82
2023-04-29T02:38:21.936Z,1.86
2023-04-29T02:39:21.984Z,1.83
2023-04-29T02:40:21.944Z,1.86
2023-04-29T02:41:21.933Z,1.84
2023-04-29T02:42:21.976Z,1.85
2023-04-29T02:43:22.029Z,1.86
2023-04-29T02:44:21.982Z,1.82
2023-04-29T02:45:21.984Z,1.84
2023-04-29T02:46:22.111Z,1.85
2023-04-29T02:47:22.061Z,1.83
2023-04-29T02:48:22.009Z,1.83
2023-04-29T02:49:22.028Z,1.82
2023-04-29T02:50:22.104Z,1.86
2023-04-29T02:51:22.178Z,1.85
2023-04-29T02:52:22.243Z,1.81
2023-04-29T02:53:22.288Z,1.80
2023-04-29T02:54:22.311Z,1.84
2023-04-29T02:55:22.352Z,1.80
2023-04-29T02:56:22.340Z,1.79
2023-04-29T02:57:22.368Z,1.80
2023-04-29T02:58:22.396Z,1.80
2023-04-29T02:59:22.325Z,1.80
2023-04-29T03:00:22.342Z,1.81
2023-04-29T03:01:22.387Z,1.81
2023-04-29T03:02:22.489Z,1.81
2023-04-29T03:03:22.517Z,1.83
2023-04-29T03:04:22.661Z,1.84
2023-04-29T03:05:22.512Z,1.81
2023-04-29T03:06:22.615Z,1.82
2023-04-29T03:07:22.657Z,1.82
2023-04-29T03:08:22.639Z,1.81
2023-04-29T03:09:22.729Z,1.78
2023-04-29T03:10:22.819Z,1.83
2023-04-29T03:11:22.888Z,1.81
2023-04-29T03:12:22.941Z,1.82
2023-04-29T03:13:22.978Z,1.82
2023-04-29T03:14:23.009Z,1.79
2023-04-29T03:15:23.077Z,1.80
2023-04-29T03:16:23.224Z,1.79
2023-04-29T03:17:23.210Z,1.79
2023-04-29T03:18:23.283Z,1.77
2023-04-29T03:19:23.285Z,1.81
2023-04-29T03:20:23.344Z,1.81
2023-04-29T03:21:23.404Z,1.80
2023-04-29T03:22:23.456Z,1.80
2023-04-29T03:23:23.452Z,1.79
2023-04-29T03:24:23.474Z,1.81
2023-04-29T03:25:23.465Z,1.79
2023-04-29T03:26:23.511Z,1.80
2023-04-29T03:27:23.484Z,1.81
2023-04-29T03:28:23.490Z,1.80
2023-04-29T03:29:23.461Z,1.78
2023-04-29T03:30:23.573Z,1.78
2023-04-29T03:31:23.660Z,1.78
2023-04-29T03:32:23.685Z,1.79
2023-04-29T03:33:23.733Z,1.79
2023-04-29T03:34:23.789Z,1.76
2023-04-29T03:35:23.910Z,1.78
2023-04-29T03:36:23.904Z,1.77
2023-04-29T03:37:23.963Z,1.79
2023-04-29T03:38:24.040Z,1.77
2023-04-29T03:39:24.081Z,1.78
2023-04-29T03:40:24.170Z,1.75
2023-04-29T03:41:24.146Z,1.77
2023-04-29T03:42:24.162Z,1.77
2023-04-29T03:43:24.170Z,1.78
2023-04-29T03:44:24.226Z,1.75
2023-04-29T03:45:24.300Z,1.78
2023-04-29T03:46:24.349Z,1.78
2023-04-29T03:47:24.511Z,1.74
2023-04-29T03:48:24.502Z,1.73
2023-04-29T03:49:24.506Z,1.78
2023-04-29T03:50:24.577Z,1.75
2023-04-29T03:51:24.753Z,1.78
2023-04-29T03:52:24.693Z,1.76
2023-04-29T03:53:24.746Z,1.76
2023-04-29T03:54:24.791Z,1.77
2023-04-29T03:55:24.818Z,1.74
2023-04-29T03:56:24.812Z,1.75
2023-04-29T03:57:24.822Z,1.75
2023-04-29T03:58:24.832Z,1.76
2023-04-29T03:59:24.829Z,1.74
2023-04-29T04:00:24.829Z,1.73
2023-04-29T04:01:24.841Z,1.73
2023-04-29T04:02:25.122Z,1.75
2023-04-29T04:03:24.892Z,1.69
2023-04-29T04:04:25.098Z,1.74
2023-04-29T04:05:24.870Z,1.72
2023-04-29T04:06:24.896Z,1.73
2023-04-29T04:07:24.986Z,1.73
2023-04-29T04:08:25.048Z,1.74
2023-04-29T04:09:25.073Z,1.74
2023-04-29T04:10:25.130Z,1.76
2023-04-29T04:11:25.205Z,1.71
2023-04-29T04:12:25.287Z,1.75
2023-04-29T04:13:25.327Z,1.71
2023-04-29T04:14:25.383Z,1.73
2023-04-29T04:15:25.430Z,1.71
2023-04-29T04:16:25.498Z,1.72
2023-04-29T04:17:25.462Z,1.72
2023-04-29T04:18:25.453Z,1.71
2023-04-29T04:19:25.436Z,1.70
2023-04-29T04:20:25.498Z,1.74
2023-04-29T04:21:25.501Z,1.69
2023-04-29T04:22:25.556Z,1.69
2023-04-29T04:23:25.574Z,1.71
2023-04-29T04:24:25.567Z,1.69
2023-04-29T04:25:25.646Z,1.67
2023-04-29T04:26:25.633Z,1.65
2023-04-29T04:27:25.732Z,1.66
2023-04-29T04:28:25.753Z,1.68
2023-04-29T04:29:25.806Z,1.71
2023-04-29T04:30:25.845Z,1.70
2023-04-29T04:31:25.954Z,1.68
2023-04-29T04:32:25.983Z,1.70
2023-04-29T04:33:26.040Z,1.71
2023-04-29T04:34:26.098Z,1.70
2023-04-29T04:35:26.162Z,1.69
2023-04-29T04:36:26.218Z,1.69
2023-04-29T04:37:26.285Z,1.68
2023-04-29T04:38:26.347Z,1.70
2023-04-29T04:39:26.444Z,1.68
2023-04-29T04:40:26.452Z,1.71
2023-04-29T04:41:26.517Z,1.69
2023-04-29T04:42:26.564Z,1.69
2023-04-29T04:43:26.635Z,1.69
2023-04-29T04:44:26.677Z,1.68
2023-04-29T04:45:26.761Z,1.68
2023-04-29T04:46:26.801Z,1.68
2023-04-29T04:47:26.914Z,1.67
2023-04-29T04:48:26.930Z,1.68
2023-04-29T04:49:26.978Z,1.66
2023-04-29T04:50:27.014Z,1.67
2023-04-29T04:51:27.197Z,1.66
2023-04-29T04:52:27.133Z,1.64
2023-04-29T04:53:27.206Z,1.64
2023-04-29T04:54:27.284Z,1.67
2023-04-29T04:55:27.309Z,1.63
2023-04-29T04:56:27.364Z,1.66
2023-04-29T04:57:27.440Z,1.68
2023-04-29T04:58:27.495Z,1.65
2023-04-29T04:59:27.560Z,1.66
2023-04-29T05:00:27.628Z,1.66
2023-04-29T05:01:27.754Z,1.66
2023-04-29T05:02:27.985Z,1.67
2023-04-29T05:03:28.021Z,1.65
2023-04-29T05:04:27.989Z,1.62
2023-04-29T05:05:27.935Z,1.64
2023-04-29T05:06:28.012Z,1.62
2023-04-29T05:07:28.016Z,1.61
2023-04-29T05:08:28.019Z,1.64
2023-04-29T05:09:28.062Z,1.61
2023-04-29T05:10:28.154Z,1.60
2023-04-29T05:11:28.179Z,1.61
2023-04-29T05:12:28.258Z,1.62
2023-04-29T05:13:28.319Z,1.60
2023-04-29T05:14:28.455Z,1.61
2023-04-29T05:15:28.408Z,1.60
2023-04-29T05:16:28.469Z,1.59
2023-04-29T05:17:28.520Z,1.56
2023-04-29T05:18:28.444Z,1.56
2023-04-29T05:19:28.463Z,1.52
2023-04-29T05:20:28.468Z,1.51
2023-04-29T05:21:28.509Z,1.51
2023-04-29T05:22:28.577Z,1.50
2023-04-29T05:23:28.658Z,1.52
2023-04-29T05:24:28.649Z,1.54
2023-04-29T05:25:28.672Z,1.57
2023-04-29T05:26:28.751Z,1.53
2023-04-29T05:27:28.768Z,1.55
2023-04-29T05:28:28.821Z,1.54
2023-04-29T05:29:28.845Z,1.52
2023-04-29T05:30:28.932Z,1.55
2023-04-29T05:31:29.065Z,1.59
2023-04-29T05:32:29.031Z,1.53
2023-04-29T05:33:29.053Z,1.57
2023-04-29T05:34:29.127Z,1.51
2023-04-29T05:35:29.154Z,1.55
2023-04-29T05:36:29.238Z,1.52
2023-04-29T05:37:29.296Z,1.53
2023-04-29T05:38:29.383Z,1.57
2023-04-29T05:39:29.407Z,1.56
2023-04-29T05:40:29.438Z,1.56
2023-04-29T05:41:29.496Z,1.54
2023-04-29T05:42:29.550Z,1.53
2023-04-29T05:43:29.587Z,1.55
2023-04-29T05:44:29.692Z,1.51
2023-04-29T05:45:29.717Z,1.51
2023-04-29T05:46:29.805Z,1.48
2023-04-29T05:47:29.833Z,1.50
2023-04-29T05:48:29.943Z,1.51
2023-04-29T05:49:29.911Z,1.49
2023-04-29T05:50:29.956Z,1.53
2023-04-29T05:51:30.010Z,1.54
2023-04-29T05:52:30.063Z,1.54
2023-04-29T05:53:30.134Z,1.50
2023-04-29T05:54:30.210Z,1.49
2023-04-29T05:55:30.252Z,1.51
2023-04-29T05:56:30.246Z,1.48
2023-04-29T05:57:30.300Z,1.47
2023-04-29T05:58:30.350Z,1.49
2023-04-29T05:59:30.476Z,1.51
2023-04-29T06:00:30.474Z,1.49
2023-04-29T06:01:30.520Z,1.49
2023-04-29T06:02:30.665Z,1.50
2023-04-29T06:03:30.854Z,1.48
2023-04-29T06:04:30.817Z,1.43
2023-04-29T06:05:30.994Z,1.49
2023-04-29T06:06:30.858Z,1.49
2023-04-29T06:07:30.831Z,1.46
2023-04-29T06:08:30.850Z,1.49
2023-04-29T06:09:30.917Z,1.46
2023-04-29T06:10:30.973Z,1.50
2023-04-29T06:11:31.040Z,1.47
2023-04-29T06:12:31.045Z,1.47
2023-04-29T06:13:31.052Z,1.44
2023-04-29T06:14:31.082Z,1.46
2023-04-29T06:15:31.158Z,1.43
2023-04-29T06:16:31.224Z,1.43
2023-04-29T06:17:31.259Z,1.42
2023-04-29T06:18:31.209Z,1.40
2023-04-29T06:19:31.228Z,1.40
2023-04-29T06:20:31.205Z,1.37
2023-04-29T06:21:31.219Z,1.38
2023-04-29T06:22:31.237Z,1.38
2023-04-29T06:23:31.242Z,1.37
2023-04-29T06:24:31.265Z,1.41
2023-04-29T06:25:31.256Z,1.41
2023-04-29T06:26:31.322Z,1.42
2023-04-29T06:27:31.301Z,1.43
2023-04-29T06:28:31.340Z,1.45
2023-04-29T06:29:31.351Z,1.45
2023-04-29T06:30:31.361Z,1.45
2023-04-29T06:31:31.314Z,1.43
2023-04-29T06:32:31.416Z,1.42
2023-04-29T06:33:31.378Z,1.41
2023-04-29T06:34:31.334Z,1.44
2023-04-29T06:35:31.331Z,1.45
2023-04-29T06:36:31.346Z,1.41
2023-04-29T06:37:31.319Z,1.37
2023-04-29T06:38:31.332Z,1.38
2023-04-29T06:39:31.330Z,1.38
2023-04-29T06:40:31.364Z,1.38
2023-04-29T06:41:31.356Z,1.36
2023-04-29T06:42:31.394Z,1.35
2023-04-29T06:43:31.504Z,1.35
2023-04-29T06:44:31.471Z,1.37
2023-04-29T06:45:31.568Z,1.36
2023-04-29T06:46:31.741Z,1.36
2023-04-29T06:47:31.754Z,1.36
2023-04-29T06:48:31.714Z,1.36
2023-04-29T06:49:31.729Z,1.36
2023-04-29T06:50:31.797Z,1.35
2023-04-29T06:51:31.819Z,1.35
2023-04-29T06:52:31.922Z,1.35
2023-04-29T06:53:31.914Z,1.36
2023-04-29T06:54:31.957Z,1.35
2023-04-29T06:55:32.026Z,1.34
2023-04-29T06:56:32.085Z,1.34
2023-04-29T06:57:32.102Z,1.33
2023-04-29T06:58:32.195Z,1.33
2023-04-29T06:59:32.297Z,1.31
2023-04-29T07:00:32.272Z,1.32
2023-04-29T07:01:32.419Z,1.35
2023-04-29T07:02:32.522Z,1.34
2023-04-29T07:03:32.647Z,1.33
2023-04-29T07:04:32.525Z,1.32
2023-04-29T07:05:32.533Z,1.30
2023-04-29T07:06:32.562Z,1.32
2023-04-29T07:07:32.597Z,1.31
2023-04-29T07:08:32.641Z,1.32
2023-04-29T07:09:32.689Z,1.33
2023-04-29T07:10:32.686Z,1.34
2023-04-29T07:11:32.749Z,1.33
2023-04-29T07:12:32.787Z,1.32
2023-04-29T07:13:32.781Z,1.34
2023-04-29T07:14:32.810Z,1.34
2023-04-29T07:15:32.807Z,1.34
2023-04-29T07:16:32.911Z,1.32
2023-04-29T07:17:32.984Z,1.32
2023-04-29T07:18:32.864Z,1.32
2023-04-29T07:19:32.900Z,1.31
2023-04-29T07:20:32.938Z,1.30
2023-04-29T07:21:32.943Z,1.27
2023-04-29T07:22:32.984Z,1.29
2023-04-29T07:23:32.972Z,1.29
2023-04-29T07:24:32.976Z,1.28
2023-04-29T07:25:32.986Z,1.28
2023-04-29T07:26:32.992Z,1.32
2023-04-29T07:27:33.003Z,1.32
2023-04-29T07:28:33.015Z,1.33
2023-04-29T07:29:33.042Z,1.31
2023-04-29T07:30:33.050Z,1.32
2023-04-29T07:31:34.049Z,1.32
2023-04-29T07:32:33.142Z,1.32
2023-04-29T07:33:33.071Z,1.31
2023-04-29T07:34:33.076Z,1.30
2023-04-29T07:35:33.141Z,1.29
2023-04-29T07:36:33.202Z,1.27
2023-04-29T07:37:33.179Z,1.28
2023-04-29T07:38:33.179Z,1.29
2023-04-29T07:39:33.193Z,1.29
2023-04-29T07:40:33.197Z,1.27
2023-04-29T07:41:33.193Z,1.20
2023-04-29T07:42:33.266Z,1.27
2023-04-29T07:43:33.287Z,1.24
2023-04-29T07:44:33.300Z,1.22
2023-04-29T07:45:33.313Z,1.25
2023-04-29T07:46:33.339Z,1.25
2023-04-29T07:47:33.333Z,1.28
2023-04-29T07:48:33.326Z,1.25
2023-04-29T07:49:33.290Z,1.25
2023-04-29T07:50:33.312Z,1.30
2023-04-29T07:51:33.336Z,1.24
2023-04-29T07:52:33.341Z,1.28
2023-04-29T07:53:33.387Z,1.24
2023-04-29T07:54:33.367Z,1.25
2023-04-29T07:55:33.412Z,1.20
2023-04-29T07:56:33.408Z,1.21
2023-04-29T07:57:33.360Z,1.19
2023-04-29T07:58:33.480Z,1.20
2023-04-29T07:59:33.372Z,1.19
2023-04-29T08:00:33.407Z,1.23
2023-04-29T08:01:33.452Z,1.22
2023-04-29T08:02:33.469Z,1.22
2023-04-29T08:03:33.597Z,1.22
2023-04-29T08:04:33.610Z,1.23
2023-04-29T08:05:33.948Z,1.23
2023-04-29T08:06:33.478Z,1.20
2023-04-29T08:07:33.472Z,1.21
2023-04-29T08:08:33.478Z,1.20
2023-04-29T08:09:33.487Z,1.19
2023-04-29T08:10:33.547Z,1.20
2023-04-29T08:11:33.775Z,1.18
2023-04-29T08:12:33.592Z,1.19
2023-04-29T08:13:33.619Z,1.19
2023-04-29T08:14:33.625Z,1.20
2023-04-29T08:15:33.667Z,1.18
2023-04-29T08:16:33.775Z,1.20
2023-04-29T08:17:33.788Z,1.21
2023-04-29T08:18:33.840Z,1.21
2023-04-29T08:19:33.885Z,1.21
2023-04-29T08:20:33.955Z,1.20
2023-04-29T08:21:34.014Z,1.20
2023-04-29T08:22:34.057Z,1.21
2023-04-29T08:23:34.088Z,1.19
2023-04-29T08:24:34.021Z,1.20
2023-04-29T08:25:34.095Z,1.19
2023-04-29T08:26:34.140Z,1.19
2023-04-29T08:27:34.129Z,1.20
2023-04-29T08:28:34.117Z,1.18
2023-04-29T08:29:34.114Z,1.23
2023-04-29T08:30:34.103Z,1.22
2023-04-29T08:31:34.131Z,1.20
2023-04-29T08:32:34.137Z,1.21
2023-04-29T08:33:34.111Z,1.19
2023-04-29T08:34:34.133Z,1.17
2023-04-29T08:35:34.159Z,1.18
2023-04-29T08:36:34.195Z,1.20
2023-04-29T08:37:34.276Z,1.19
2023-04-29T08:38:34.277Z,1.20
2023-04-29T08:39:34.308Z,1.19
2023-04-29T08:40:34.353Z,1.18
2023-04-29T08:41:34.436Z,1.20
2023-04-29T08:42:34.510Z,1.19
2023-04-29T08:43:34.513Z,1.18
2023-04-29T08:44:34.560Z,1.20
2023-04-29T08:45:34.631Z,1.19
2023-04-29T08:46:34.661Z,1.20
2023-04-29T08:47:34.756Z,1.20
2023-04-29T08:48:34.853Z,1.18
2023-04-29T08:49:34.886Z,1.20
2023-04-29T08:50:34.820Z,1.21
2023-04-29T08:51:34.902Z,1.22
2023-04-29T08:52:34.877Z,1.18
2023-04-29T08:53:34.900Z,1.22
2023-04-29T08:54:34.928Z,1.21
2023-04-29T08:55:35.014Z,1.22
2023-04-29T08:56:34.974Z,1.21
2023-04-29T08:57:35.048Z,1.21
2023-04-29T08:58:35.074Z,1.23
2023-04-29T08:59:35.077Z,1.21
2023-04-29T09:00:35.177Z,1.21
2023-04-29T09:01:35.294Z,1.18
2023-04-29T09:02:35.307Z,1.19
2023-04-29T09:03:35.582Z,1.18
2023-04-29T09:04:35.470Z,1.19
2023-04-29T09:05:35.486Z,1.17
2023-04-29T09:06:35.485Z,1.17
2023-04-29T09:07:35.499Z,1.13
2023-04-29T09:08:35.593Z,1.14
2023-04-29T09:09:35.597Z,1.15
2023-04-29T09:10:35.603Z,1.13
2023-04-29T09:11:35.669Z,1.10
2023-04-29T09:12:35.747Z,1.12
2023-04-29T09:13:35.754Z,1.09
2023-04-29T09:14:35.839Z,1.07
2023-04-29T09:15:35.959Z,1.09
2023-04-29T09:16:35.932Z,1.09
2023-04-29T09:17:35.971Z,1.08
2023-04-29T09:18:35.972Z,1.08
2023-04-29T09:19:35.998Z,1.06
2023-04-29T09:20:36.040Z,1.05
2023-04-29T09:21:36.092Z,1.05
2023-04-29T09:22:36.097Z,1.06
2023-04-29T09:23:36.121Z,1.03
2023-04-29T09:24:36.139Z,0.99
2023-04-29T09:25:36.221Z,1.00
2023-04-29T09:26:36.256Z,1.00
2023-04-29T09:27:36.289Z,1.02
2023-04-29T09:28:36.303Z,0.99
2023-04-29T09:29:36.374Z,1.01
2023-04-29T09:30:36.378Z,0.97
2023-04-29T09:31:36.491Z,0.98
2023-04-29T09:32:38.488Z,0.99
2023-04-29T09:33:36.485Z,0.97
2023-04-29T09:34:36.452Z,0.96
2023-04-29T09:35:36.457Z,0.96
2023-04-29T09:36:36.442Z,0.99
2023-04-29T09:37:36.429Z,0.96
2023-04-29T09:38:36.419Z,0.97
2023-04-29T09:39:36.406Z,0.97
2023-04-29T09:40:46.655Z,0.97
2023-04-29T09:41:44.303Z,0.97
2023-04-29T09:42:36.373Z,0.98
2023-04-29T09:44:55.377Z,0.50
2023-04-29T09:45:55.293Z,0.50
2023-04-29T09:46:55.129Z,0.50
2023-04-29T09:47:55.156Z,0.50
2023-04-29T09:48:55.122Z,0.50
2023-04-29T09:49:55.106Z,0.50
2023-04-29T09:50:55.143Z,0.51
2023-04-29T09:53:13.850Z,0.50
2023-04-29T09:54:13.837Z,0.50
2023-04-29T09:55:13.851Z,0.50
2023-04-29T10:00:29.927Z,0.50
2023-04-29T10:01:29.967Z,0.50
2023-04-29T10:02:30.074Z,0.50
2023-04-29T10:03:30.298Z,0.50
2023-04-29T10:04:30.085Z,0.50
2023-04-29T10:05:30.077Z,0.50
2023-04-29T10:06:30.232Z,0.50
2023-04-29T10:07:30.252Z,0.50
2023-04-29T10:08:30.239Z,0.49
2023-04-29T10:09:30.295Z,0.50
2023-04-29T10:10:30.595Z,0.50
2023-04-29T10:11:30.338Z,0.51
2023-04-29T10:12:30.401Z,0.50
2023-04-29T10:13:30.405Z,0.50
2023-04-29T10:14:30.426Z,0.51
2023-04-29T10:15:30.465Z,0.50
2023-04-29T10:16:30.757Z,0.51
2023-04-29T10:17:30.502Z,0.50
2023-04-29T10:18:30.572Z,0.50
2023-04-29T10:19:30.545Z,0.51
2023-04-29T10:20:30.621Z,0.51
2023-04-29T10:21:30.629Z,0.51
2023-04-29T10:22:30.679Z,0.51
2023-04-29T10:23:30.682Z,0.50
2023-04-29T10:24:30.768Z,0.51
2023-04-29T10:25:30.800Z,0.51
2023-04-29T10:26:30.852Z,0.52
2023-04-29T10:27:30.849Z,0.51
2023-04-29T10:28:30.879Z,0.51
2023-04-29T10:29:30.932Z,0.52
2023-04-29T10:30:30.968Z,0.51
2023-04-29T10:31:31.066Z,0.51
2023-04-29T10:32:39.941Z,0.50
2023-04-29T10:33:32.109Z,0.50
2023-04-29T10:34:31.071Z,0.50
2023-04-29T10:35:31.084Z,0.50
2023-04-29T10:36:31.177Z,0.50
2023-04-29T10:37:31.024Z,0.51
2023-04-29T10:38:31.092Z,0.52
2023-04-29T10:39:31.044Z,0.51
2023-04-29T10:40:31.016Z,0.50
2023-04-29T10:41:31.018Z,0.51
2023-04-29T10:42:31.013Z,0.51
2023-04-29T10:43:31.011Z,0.50
2023-04-29T10:44:30.967Z,0.50
2023-04-29T10:45:30.973Z,0.53
2023-04-29T10:46:31.046Z,0.51
2023-04-29T10:47:31.055Z,0.51
2023-04-29T10:48:31.069Z,0.52
2023-04-29T10:49:31.116Z,0.51
2023-04-29T10:50:31.141Z,0.52
2023-04-29T10:51:31.229Z,0.51
2023-04-29T10:52:31.255Z,0.52
2023-04-29T10:53:31.318Z,0.51
2023-04-29T10:54:31.336Z,0.52
2023-04-29T10:55:31.357Z,0.52
2023-04-29T10:56:31.400Z,0.51
2023-04-29T10:57:31.430Z,0.51
2023-04-29T10:58:31.471Z,0.51
2023-04-29T10:59:31.510Z,0.52
2023-04-29T11:00:31.559Z,0.51
2023-04-29T11:01:31.693Z,0.52
2023-04-29T11:02:31.673Z,0.51
2023-04-29T11:03:31.737Z,0.52
2023-04-29T11:04:31.752Z,0.52
2023-04-29T11:05:31.761Z,0.51
2023-04-29T11:06:31.802Z,0.52
2023-04-29T11:07:31.811Z,0.51
2023-04-29T11:08:31.862Z,0.52
2023-04-29T11:09:31.942Z,0.52
2023-04-29T11:10:31.930Z,0.52
2023-04-29T11:11:31.931Z,0.52
2023-04-29T11:12:32.048Z,0.50
2023-04-29T11:13:32.097Z,0.51
2023-04-29T11:14:32.156Z,0.52
2023-04-29T11:15:32.095Z,0.51
2023-04-29T11:16:32.256Z,0.52
2023-04-29T11:17:32.258Z,0.52
2023-04-29T11:18:32.313Z,0.52
2023-04-29T11:19:32.371Z,0.51
2023-04-29T11:20:32.352Z,0.51
2023-04-29T11:21:32.411Z,0.53
2023-04-29T11:22:32.444Z,0.52
2023-04-29T11:23:32.422Z,0.52
2023-04-29T11:24:32.477Z,0.52
2023-04-29T11:25:32.552Z,0.52
2023-04-29T11:26:32.570Z,0.52
2023-04-29T11:27:32.681Z,0.52
2023-04-29T11:28:32.587Z,0.53
2023-04-29T11:29:32.631Z,0.51
2023-04-29T11:30:32.687Z,0.52
2023-04-29T11:31:32.918Z,0.52
2023-04-29T11:32:32.850Z,0.53
2023-04-29T11:33:32.801Z,0.53
2023-04-29T11:34:32.826Z,0.54
2023-04-29T11:35:32.854Z,0.53
2023-04-29T11:36:32.860Z,0.53
2023-04-29T11:37:32.890Z,0.54
2023-04-29T11:38:32.942Z,0.53
2023-04-29T11:39:32.984Z,0.52
2023-04-29T11:40:33.002Z,0.54
2023-04-29T11:41:33.023Z,0.54
2023-04-29T11:42:33.025Z,0.53
2023-04-29T11:43:33.086Z,0.54
2023-04-29T11:44:33.122Z,0.53
2023-04-29T11:45:33.201Z,0.54
2023-04-29T11:46:33.245Z,0.54
2023-04-29T11:47:33.311Z,0.54
2023-04-29T11:48:33.278Z,0.55
2023-04-29T11:49:33.331Z,0.54
2023-04-29T11:50:33.325Z,0.53
2023-04-29T11:51:33.408Z,0.55
2023-04-29T11:52:33.405Z,0.55
2023-04-29T11:53:33.461Z,0.54
2023-04-29T11:54:33.460Z,0.53
2023-04-29T11:55:33.505Z,0.54
2023-04-29T11:56:33.509Z,0.54
2023-04-29T11:57:33.616Z,0.54
2023-04-29T11:58:33.594Z,0.54
2023-04-29T11:59:34.219Z,0.54
2023-04-29T12:00:33.706Z,0.54
2023-04-29T12:01:33.720Z,0.55
2023-04-29T12:02:33.839Z,0.54
2023-04-29T12:03:33.972Z,0.53
2023-04-29T12:04:33.946Z,0.55
2023-04-29T12:05:33.975Z,0.55
2023-04-29T12:06:33.905Z,0.54
2023-04-29T12:07:33.961Z,0.54
2023-04-29T12:08:34.016Z,0.55
2023-04-29T12:09:34.001Z,0.54
2023-04-29T12:10:34.093Z,0.54
2023-04-29T12:11:34.095Z,0.55
2023-04-29T12:12:34.130Z,0.55
2023-04-29T12:13:34.134Z,0.54
2023-04-29T12:14:34.212Z,0.54
2023-04-29T12:15:34.226Z,0.55
2023-04-29T12:16:34.314Z,0.55
2023-04-29T12:17:34.453Z,0.54
2023-04-29T12:18:34.437Z,0.54
2023-04-29T12:19:34.464Z,0.54
2023-04-29T12:20:34.488Z,0.54
2023-04-29T12:21:34.560Z,0.54
2023-04-29T12:22:34.554Z,0.55
2023-04-29T12:23:34.582Z,0.55
2023-04-29T12:24:34.719Z,0.53
2023-04-29T12:25:34.687Z,0.54
2023-04-29T12:26:34.719Z,0.54
2023-04-29T12:27:34.721Z,0.53
2023-04-29T12:28:34.828Z,0.54
2023-04-29T12:29:34.780Z,0.54
2023-04-29T12:30:34.838Z,0.55
2023-04-29T12:31:34.910Z,0.54
2023-04-29T12:32:35.004Z,0.55
2023-04-29T12:33:34.965Z,0.54
2023-04-29T12:34:35.079Z,0.54
2023-04-29T12:35:35.010Z,0.54
2023-04-29T12:36:35.063Z,0.55
2023-04-29T12:37:35.073Z,0.55
2023-04-29T12:38:35.139Z,0.55
2023-04-29T12:39:35.159Z,0.55
2023-04-29T12:40:35.200Z,0.54
2023-04-29T12:41:35.281Z,0.54
2023-04-29T12:42:35.336Z,0.55
2023-04-29T12:43:35.331Z,0.54
2023-04-29T12:44:35.367Z,0.54
2023-04-29T12:45:35.445Z,0.55
2023-04-29T12:46:35.570Z,0.54
2023-04-29T12:47:35.573Z,0.54
2023-04-29T12:48:35.642Z,0.55
2023-04-29T12:49:35.690Z,0.54
2023-04-29T12:50:35.687Z,0.55
2023-04-29T12:51:35.722Z,0.55
2023-04-29T12:52:36.861Z,0.54
2023-04-29T12:53:35.806Z,0.56
2023-04-29T12:54:35.852Z,0.54
2023-04-29T12:55:35.888Z,0.55
2023-04-29T12:56:35.972Z,0.55
2023-04-29T12:57:35.981Z,0.55
2023-04-29T12:58:36.008Z,0.55
2023-04-29T12:59:36.088Z,0.55
2023-04-29T13:00:36.191Z,0.55
2023-04-29T13:01:36.337Z,0.54
2023-04-29T13:02:36.888Z,0.53
2023-04-29T13:03:36.392Z,0.53
2023-04-29T13:04:36.365Z,0.53
2023-04-29T13:05:36.380Z,0.54
2023-04-29T13:06:36.342Z,0.53
2023-04-29T13:07:37.120Z,0.54
2023-04-29T13:08:36.424Z,0.53
2023-04-29T13:09:36.470Z,0.52
2023-04-29T13:10:36.473Z,0.54
2023-04-29T13:11:36.547Z,0.54
2023-04-29T13:12:36.583Z,0.53
2023-04-29T13:13:36.592Z,0.53
2023-04-29T13:14:36.602Z,0.53
2023-04-29T13:15:36.681Z,0.53
2023-04-29T13:16:36.889Z,0.54
2023-04-29T13:17:36.870Z,0.53
2023-04-29T13:18:36.939Z,0.53
2023-04-29T13:19:50.194Z,0.54
2023-04-29T13:20:41.401Z,0.54
2023-04-29T13:21:36.821Z,0.54
2023-04-29T13:22:36.840Z,0.55
2023-04-29T13:23:36.765Z,0.55
2023-04-29T13:24:36.881Z,0.54
2023-04-29T13:25:36.874Z,0.55